Time;durP1;ratioP1;P1;durP2;ratioP2;P2;SDS_P1;SDS_P2;PMS_P1;PMS_P2;Temp;Humidity;BMP_temperature;BMP_pressure;BME280_temperature;BME280_humidity;BME280_pressure;Samples;Min_cycle;Max_cycle;Signal;HPM_P1;HPM_P2
2023/07/06 00:01:26;;;;;;;16.33;8.95;;;;;;;11.94;100.00;101409.06;4963892;28;20467;-83
2023/07/06 00:03:54;;;;;;;14.85;7.45;;;;;;;11.95;100.00;101409.91;4997328;28;20100;-83
2023/07/06 00:06:20;;;;;;;15.10;7.57;;;;;;;11.93;100.00;101410.97;4964210;28;20104;-83
2023/07/06 00:08:45;;;;;;;22.97;8.93;;;;;;;11.92;100.00;101411.13;4947616;28;20030;-83
2023/07/06 00:11:13;;;;;;;13.73;7.50;;;;;;;11.90;100.00;101405.09;4947544;28;20125;-83
2023/07/06 00:13:39;;;;;;;15.18;7.40;;;;;;;11.89;100.00;101411.56;4997046;28;20089;-83
2023/07/06 00:16:05;;;;;;;16.20;7.20;;;;;;;11.87;100.00;101414.50;4979594;28;20035;-83
2023/07/06 00:18:31;;;;;;;15.87;7.10;;;;;;;11.83;100.00;101410.50;4995701;28;20030;-83
2023/07/06 00:20:57;;;;;;;16.92;7.35;;;;;;;11.79;100.00;101398.38;4947696;28;20100;-83
2023/07/06 00:23:23;;;;;;;12.15;6.65;;;;;;;11.77;100.00;101406.75;4979911;28;20035;-83
2023/07/06 00:25:49;;;;;;;11.73;7.30;;;;;;;11.73;100.00;101402.78;4947369;28;20043;-83
2023/07/06 00:28:16;;;;;;;12.45;6.53;;;;;;;11.68;100.00;101404.47;4995439;28;20030;-83
2023/07/06 00:33:11;;;;;;;12.95;6.63;;;;;;;11.57;100.00;101395.91;4997171;28;20049;-83
2023/07/06 00:35:39;;;;;;;14.55;7.00;;;;;;;11.54;100.00;101409.03;4979415;28;20042;-83
2023/07/06 00:38:09;;;;;;;15.23;6.57;;;;;;;11.51;100.00;101396.69;4979066;28;20031;-83
2023/07/06 00:40:37;;;;;;;11.23;6.40;;;;;;;11.48;100.00;101404.44;4964509;28;20034;-83
2023/07/06 00:43:02;;;;;;;12.13;6.33;;;;;;;11.44;100.00;101403.19;4996548;28;20042;-83
2023/07/06 00:45:28;;;;;;;11.98;6.38;;;;;;;11.43;100.00;101405.06;4978728;28;20076;-83
2023/07/06 00:47:57;;;;;;;13.90;6.27;;;;;;;11.45;100.00;101413.84;4996428;28;20022;-83
2023/07/06 00:50:25;;;;;;;16.60;6.70;;;;;;;11.45;100.00;101416.56;4978458;28;20147;-84
2023/07/06 00:53:07;;;;;;;17.02;6.32;;;;;;;11.45;100.00;101411.13;4995522;28;20082;-83
2023/07/06 00:55:42;;;;;;;11.70;6.10;;;;;;;11.44;100.00;101411.34;4996043;28;20078;-83
2023/07/06 00:58:29;;;;;;;13.00;6.28;;;;;;;11.39;100.00;101406.53;4995913;28;20037;-84
2023/07/06 01:00:59;;;;;;;14.50;6.00;;;;;;;11.38;100.00;101402.97;4995246;28;20030;-83
2023/07/06 01:03:25;;;;;;;14.65;5.28;;;;;;;11.37;100.00;101409.44;4978511;28;20069;-83
2023/07/06 01:05:55;;;;;;;10.67;5.33;;;;;;;11.34;100.00;101406.31;4978242;28;20093;-83
2023/07/06 01:08:23;;;;;;;10.13;4.83;;;;;;;11.31;100.00;101399.41;4995974;28;20285;-83
2023/07/06 01:10:49;;;;;;;10.02;4.68;;;;;;;11.31;100.00;101404.84;4978474;28;20034;-83
2023/07/06 01:13:15;;;;;;;11.55;5.20;;;;;;;11.29;100.00;101403.38;4978903;28;20474;-83
2023/07/06 01:15:48;;;;;;;10.43;5.10;;;;;;;11.27;100.00;101403.59;4978604;28;20042;-83
2023/07/06 01:18:33;;;;;;;13.63;5.70;;;;;;;11.24;100.00;101407.53;4994312;28;20033;-84
2023/07/06 01:21:11;;;;;;;8.95;5.32;;;;;;;11.23;100.00;101411.31;4978572;28;20053;-83
2023/07/06 01:23:55;;;;;;;12.85;5.05;;;;;;;11.22;100.00;101406.09;4995554;28;20030;-83
2023/07/06 01:26:48;;;;;;;11.40;5.03;;;;;;;11.24;100.00;101404.00;4994458;28;20026;-83
2023/07/06 01:29:35;;;;;;;11.37;4.90;;;;;;;11.23;100.00;101410.47;4995663;28;20084;-83
2023/07/06 01:32:06;;;;;;;13.85;4.90;;;;;;;11.23;100.00;101407.75;4978309;28;20038;-83
2023/07/06 01:34:41;;;;;;;10.90;4.72;;;;;;;11.22;100.00;101408.81;4996387;28;20026;-83
2023/07/06 01:37:18;;;;;;;11.20;4.35;;;;;;;11.21;100.00;101405.25;4978362;28;20418;-83
2023/07/06 01:39:44;;;;;;;11.77;4.38;;;;;;;11.20;100.00;101414.41;4995514;28;20026;-83
2023/07/06 01:42:09;;;;;;;11.10;4.27;;;;;;;11.20;100.00;101409.00;4978207;28;20081;-83
2023/07/06 01:44:37;;;;;;;9.53;4.20;;;;;;;11.18;100.00;101412.97;4995350;28;20030;-83
2023/07/06 01:47:04;;;;;;;7.70;4.38;;;;;;;11.15;100.00;101408.78;4994323;28;20042;-83
2023/07/06 01:49:30;;;;;;;10.68;4.22;;;;;;;11.10;100.00;101407.72;4977739;28;20489;-83
2023/07/06 01:52:08;;;;;;;8.98;4.28;;;;;;;11.03;100.00;101402.28;4978008;28;20034;-84
2023/07/06 01:54:47;;;;;;;9.30;4.17;;;;;;;10.98;100.00;101407.47;4978070;28;20045;-83
2023/07/06 01:57:24;;;;;;;10.73;4.45;;;;;;;10.93;100.00;101416.25;4995744;28;20026;-83
2023/07/06 01:59:53;;;;;;;9.73;4.43;;;;;;;10.93;100.00;101415.41;4995113;28;20522;-83
2023/07/06 02:02:20;;;;;;;13.02;4.82;;;;;;;10.88;100.00;101414.16;4993493;28;20023;-83
2023/07/06 02:04:47;;;;;;;14.60;4.57;;;;;;;10.87;100.00;101409.75;4977094;28;20509;-84
2023/07/06 02:07:16;;;;;;;15.10;5.03;;;;;;;10.82;100.00;101414.97;4994032;28;20417;-83
2023/07/06 02:09:43;;;;;;;11.10;4.47;;;;;;;10.82;100.00;101414.97;4995339;28;20037;-83
2023/07/06 02:12:10;;;;;;;12.32;4.60;;;;;;;10.81;100.00;101418.72;4993865;28;20022;-83
2023/07/06 02:14:35;;;;;;;13.43;4.40;;;;;;;10.80;100.00;101417.03;4977370;28;20471;-83
2023/07/06 02:17:00;;;;;;;12.13;4.60;;;;;;;10.77;100.00;101409.28;4977341;28;20035;-83
2023/07/06 02:19:26;;;;;;;13.30;4.40;;;;;;;10.76;100.00;101409.50;4977018;28;20053;-83
2023/07/06 02:21:51;;;;;;;8.40;4.03;;;;;;;10.74;100.00;101412.41;4977380;28;20114;-83
2023/07/06 02:24:17;;;;;;;9.57;4.03;;;;;;;10.74;100.00;101415.13;4977691;28;20528;-83
2023/07/06 02:26:44;;;;;;;12.40;4.33;;;;;;;10.74;100.00;101412.41;4977413;28;20069;-83
2023/07/06 02:29:09;;;;;;;13.13;4.55;;;;;;;10.75;100.00;101414.09;4977057;28;20168;-83
2023/07/06 02:31:35;;;;;;;16.73;4.30;;;;;;;10.75;100.00;101405.09;4976925;28;20109;-83
2023/07/06 02:34:01;;;;;;;11.80;4.50;;;;;;;10.75;100.00;101403.25;4977227;28;20030;-83
2023/07/06 02:36:26;;;;;;;12.67;4.50;;;;;;;10.75;100.00;101403.25;4977070;28;20475;-84
2023/07/06 02:38:52;;;;;;;5.72;4.20;;;;;;;10.78;100.00;101400.13;4976707;28;20034;-83
2023/07/06 02:41:17;;;;;;;11.50;4.80;;;;;;;10.78;100.00;101399.28;4993425;28;20120;-83
2023/07/06 02:43:43;;;;;;;11.90;3.90;;;;;;;10.78;100.00;101400.13;4976700;28;20454;-83
2023/07/06 02:46:09;;;;;;;12.65;4.50;;;;;;;10.81;100.00;101407.03;4976985;28;20084;-84
2023/07/06 02:48:34;;;;;;;12.87;4.37;;;;;;;10.81;100.00;101404.31;4961568;28;20034;-83
2023/07/06 02:51:00;;;;;;;17.83;4.60;;;;;;;10.83;100.00;101399.50;4977177;28;20038;-83
2023/07/06 02:53:27;;;;;;;11.30;4.18;;;;;;;10.83;100.00;101408.47;4993023;28;20052;-83
2023/07/06 02:55:53;;;;;;;14.40;4.53;;;;;;;10.83;100.00;101413.06;4976835;28;20065;-83
2023/07/06 02:58:18;;;;;;;9.95;4.22;;;;;;;10.88;100.00;101410.59;4977499;28;20030;-83
2023/07/06 03:00:47;;;;;;;8.53;4.07;;;;;;;10.91;100.00;101412.06;4977057;28;20066;-83
2023/07/06 03:03:14;;;;;;;10.35;4.05;;;;;;;10.91;100.00;101414.78;4960702;28;20031;-83
2023/07/06 03:05:43;;;;;;;13.60;4.00;;;;;;;10.91;100.00;101409.34;4993051;28;20478;-83
2023/07/06 03:08:08;;;;;;;15.30;4.23;;;;;;;10.90;100.00;101416.66;4960746;28;20034;-83
2023/07/06 03:10:33;;;;;;;9.98;3.72;;;;;;;10.90;100.00;101416.66;4993712;28;20030;-83
2023/07/06 03:12:59;;;;;;;11.67;4.10;;;;;;;10.94;100.00;101419.78;4976573;28;20092;-83
2023/07/06 03:15:25;;;;;;;11.37;4.10;;;;;;;10.95;100.00;101416.03;4979384;28;20034;-83
2023/07/06 03:17:51;;;;;;;11.30;4.18;;;;;;;10.94;100.00;101423.34;4997783;28;20022;-83
2023/07/06 03:20:24;;;;;;;12.43;4.10;;;;;;;10.94;100.00;101420.66;4996769;28;20053;-83
2023/07/06 03:22:52;;;;;;;15.60;4.33;;;;;;;10.94;100.00;101423.34;4965720;28;20049;-83
2023/07/06 03:25:23;;;;;;;11.73;4.00;;;;;;;10.97;100.00;101424.81;4980351;28;20069;-83
2023/07/06 03:27:49;;;;;;;11.02;4.47;;;;;;;10.97;100.00;101424.81;4980693;28;20459;-83
2023/07/06 03:30:19;;;;;;;13.03;4.70;;;;;;;10.97;100.00;101428.38;4996615;28;20040;-84
2023/07/06 03:32:45;;;;;;;10.67;3.87;;;;;;;10.97;100.00;101428.38;4980889;28;20270;-83
2023/07/06 03:35:11;;;;;;;15.93;4.50;;;;;;;10.97;100.00;101433.81;4964698;28;20045;-83
2023/07/06 03:37:45;;;;;;;14.10;4.20;;;;;;;10.98;100.00;101437.34;4997781;28;20749;-83
2023/07/06 03:40:11;;;;;;;10.25;4.18;;;;;;;10.99;100.00;101436.31;4996749;28;20474;-83
2023/07/06 03:42:43;;;;;;;14.77;4.30;;;;;;;10.99;100.00;101437.16;4980652;28;20533;-83
2023/07/06 03:45:10;;;;;;;12.25;3.97;;;;;;;11.00;100.00;101444.25;4997591;28;20109;-83
2023/07/06 03:47:37;;;;;;;7.65;4.03;;;;;;;10.99;100.00;101444.47;4980003;28;20121;-83
2023/07/06 03:50:04;;;;;;;7.33;3.73;;;;;;;11.00;100.00;101440.72;4996090;28;20038;-83
2023/07/06 03:52:29;;;;;;;13.73;4.78;;;;;;;10.99;100.00;101447.19;4964903;28;20080;-83
2023/07/06 03:54:55;;;;;;;10.03;4.17;;;;;;;10.99;100.00;101449.91;4996392;28;20426;-83
2023/07/06 03:57:20;;;;;;;16.30;4.28;;;;;;;10.98;100.00;101449.03;4997465;28;20023;-83
2023/07/06 03:59:46;;;;;;;17.80;4.63;;;;;;;10.98;100.00;101457.19;4979863;28;20061;-84
2023/07/06 04:02:12;;;;;;;13.73;5.13;;;;;;;10.99;100.00;101458.03;4980015;28;20022;-83
2023/07/06 04:04:39;;;;;;;15.43;4.22;;;;;;;10.99;100.00;101461.59;4979342;28;20034;-84
2023/07/06 04:07:07;;;;;;;17.10;4.70;;;;;;;11.00;100.00;101463.25;4995742;28;20037;-84
2023/07/06 04:09:33;;;;;;;16.83;4.50;;;;;;;11.03;100.00;101457.44;4948004;28;20027;-82
2023/07/06 04:11:58;;;;;;;12.43;4.30;;;;;;;11.05;100.00;101465.38;4979619;28;20041;-84
2023/07/06 04:14:26;;;;;;;10.80;4.47;;;;;;;11.06;100.00;101465.16;4979445;28;20038;-83
2023/07/06 04:16:54;;;;;;;13.60;4.95;;;;;;;11.11;100.00;101463.72;4948676;28;20080;-83
2023/07/06 04:19:20;;;;;;;12.57;4.10;;;;;;;11.11;100.00;101459.13;4996987;28;20026;-83
2023/07/06 04:21:45;;;;;;;14.90;4.30;;;;;;;11.12;100.00;101463.50;4995665;28;20485;-83
2023/07/06 04:24:11;;;;;;;14.60;4.43;;;;;;;11.15;100.00;101467.72;4963189;28;20489;-83
2023/07/06 04:26:37;;;;;;;11.40;4.30;;;;;;;11.15;100.00;101467.72;4979482;28;20046;-83
2023/07/06 04:29:04;;;;;;;14.63;4.70;;;;;;;11.16;100.00;101464.78;4996419;28;20077;-83
2023/07/06 04:31:29;;;;;;;14.20;4.38;;;;;;;11.17;100.00;101469.16;4963856;28;20034;-84
2023/07/06 04:33:55;;;;;;;13.20;4.27;;;;;;;11.16;100.00;101467.50;4996721;28;20114;-83
2023/07/06 04:36:20;;;;;;;16.40;4.47;;;;;;;11.18;100.00;101470.84;4979119;28;20026;-83
2023/07/06 04:38:46;;;;;;;17.13;4.60;;;;;;;11.21;100.00;101481.28;4995173;28;20129;-83
2023/07/06 04:41:13;;;;;;;13.43;4.37;;;;;;;11.29;100.00;101488.41;4978718;28;20145;-83
2023/07/06 04:43:38;;;;;;;15.75;4.70;;;;;;;11.35;100.00;101482.19;4978944;28;20026;-83
2023/07/06 04:46:04;;;;;;;14.43;4.70;;;;;;;11.45;100.00;101494.53;4978989;28;20038;-83
2023/07/06 04:48:30;;;;;;;14.35;4.88;;;;;;;11.48;100.00;101484.06;4963013;28;20080;-83
2023/07/06 04:50:56;;;;;;;11.05;4.47;;;;;;;11.55;100.00;101490.38;4996613;28;20034;-83
2023/07/06 04:53:22;;;;;;;13.50;4.97;;;;;;;11.62;100.00;101492.25;4978612;28;20541;-84
2023/07/06 04:55:48;;;;;;;10.88;4.53;;;;;;;11.70;100.00;101483.91;4962438;28;20128;-83
2023/07/06 04:58:13;;;;;;;15.70;4.87;;;;;;;11.77;100.00;101488.31;4962718;28;20080;-83
2023/07/06 05:00:39;;;;;;;16.90;4.35;;;;;;;11.87;100.00;101485.19;4962703;28;20084;-83
2023/07/06 05:03:07;;;;;;;15.15;4.90;;;;;;;11.90;100.00;101492.09;4994795;28;20038;-83
2023/07/06 05:05:43;;;;;;;16.03;5.87;;;;;;;11.93;100.00;101500.69;4962584;28;20055;-86
2023/07/06 05:08:15;;;;;;;13.73;5.13;;;;;;;11.96;100.00;101493.16;4978485;28;20030;-86
2023/07/06 05:10:48;;;;;;;15.95;4.93;;;;;;;11.96;100.00;101487.72;4994738;28;20129;-86
2023/07/06 05:13:14;;;;;;;17.52;5.18;;;;;;;12.03;100.00;101492.13;4978871;28;20034;-86
2023/07/06 05:15:40;;;;;;;18.38;5.90;;;;;;;12.13;100.00;101493.59;4978727;28;20378;-87
2023/07/06 05:18:06;;;;;;;14.43;5.90;;;;;;;12.23;100.00;101491.28;4994255;28;20038;-85
2023/07/06 05:20:32;;;;;;;16.35;5.80;;;;;;;12.35;100.00;101492.31;4994817;28;20089;-83
2023/07/06 05:22:58;;;;;;;16.70;5.93;;;;;;;12.45;100.00;101500.03;4994867;28;20076;-85
2023/07/06 05:25:24;;;;;;;16.90;6.00;;;;;;;12.45;100.00;101489.97;4995704;28;20463;-85
2023/07/06 05:27:49;;;;;;;21.73;6.10;;;;;;;12.44;100.00;101503.81;4978554;28;20034;-85
2023/07/06 05:30:16;;;;;;;22.50;6.00;;;;;;;12.45;100.00;101503.59;4977895;28;20453;-86
2023/07/06 05:32:41;;;;;;;20.70;6.55;;;;;;;12.46;100.00;101496.28;4995479;28;20037;-85
2023/07/06 05:35:07;;;;;;;19.00;7.10;;;;;;;12.58;100.00;101504.63;4978390;28;20360;-85
2023/07/06 05:37:34;;;;;;;23.27;7.03;;;;;;;12.67;100.00;101500.63;4977524;28;20038;-87
2023/07/06 05:40:06;;;;;;;20.67;6.28;;;;;;;12.73;100.00;101507.09;4994307;28;20103;-85
2023/07/06 05:42:32;;;;;;;22.13;7.60;;;;;;;12.82;100.00;101500.38;4994012;28;20023;-87
2023/07/06 05:44:57;;;;;;;21.10;7.07;;;;;;;12.91;100.00;101501.78;4962795;28;20041;-86
2023/07/06 05:47:22;;;;;;;19.55;7.15;;;;;;;12.94;100.00;101508.72;4978004;28;20034;-86
2023/07/06 05:49:48;;;;;;;21.10;7.40;;;;;;;13.07;100.00;101508.66;4961952;28;20034;-85
2023/07/06 05:52:13;;;;;;;22.33;7.40;;;;;;;13.11;100.00;101506.31;4945742;28;20026;-86
2023/07/06 05:54:39;;;;;;;21.07;7.40;;;;;;;13.15;100.00;101507.56;4978482;28;20031;-86
2023/07/06 05:57:06;;;;;;;19.45;6.45;;;;;;;13.15;100.00;101500.25;4995082;28;20033;-86
2023/07/06 05:59:32;;;;;;;22.63;7.47;;;;;;;13.13;100.00;101505.06;4977781;28;20089;-86
2023/07/06 06:01:58;;;;;;;18.02;7.28;;;;;;;13.06;100.00;101515.16;4961633;28;20034;-86
2023/07/06 06:04:25;;;;;;;21.45;7.47;;;;;;;13.03;100.00;101518.31;4961332;28;20061;-86
2023/07/06 06:06:54;;;;;;;24.63;8.23;;;;;;;13.04;100.00;101511.00;4957792;28;20523;-86
2023/07/06 06:09:20;;;;;;;25.20;7.97;;;;;;;13.06;100.00;101512.41;4974157;28;20058;-86
2023/07/06 06:11:48;;;;;;;26.27;7.90;;;;;;;13.11;100.00;101523.53;4975011;28;20499;-87
2023/07/06 06:14:13;;;;;;;18.75;7.70;;;;;;;13.21;100.00;101524.94;4990057;28;20038;-86
2023/07/06 06:16:40;;;;;;;25.43;8.03;;;;;;;13.36;100.00;101520.09;4974764;28;20038;-87
2023/07/06 06:19:06;;;;;;;19.17;7.85;;;;;;;13.51;100.00;101531.53;4973556;28;20388;-87
2023/07/06 06:21:33;;;;;;;17.73;7.07;;;;;;;13.62;100.00;101534.63;4974760;28;20031;-87
2023/07/06 06:24:00;;;;;;;21.08;7.00;;;;;;;13.61;100.00;101536.53;4989711;28;20126;-86
2023/07/06 06:26:26;;;;;;;19.70;8.07;;;;;;;13.61;100.00;101533.78;4989522;28;20027;-86
2023/07/06 06:28:52;;;;;;;25.67;8.25;;;;;;;13.69;100.00;101541.69;4973239;28;20045;-86
2023/07/06 06:31:18;;;;;;;28.63;8.05;;;;;;;13.85;100.00;101539.53;4973848;28;20034;-85
2023/07/06 06:33:46;;;;;;;21.30;7.40;;;;;;;13.94;100.00;101540.09;4989401;28;20031;-86
2023/07/06 06:36:18;;;;;;;20.48;8.18;;;;;;;14.03;100.00;101542.31;4957662;28;20035;-85
2023/07/06 06:38:44;;;;;;;27.42;9.02;;;;;;;14.24;100.00;101539.44;4975277;28;20031;-86
2023/07/06 06:41:10;;;;;;;26.15;10.15;;;;;;;14.31;100.00;101543.75;4973599;28;20467;-86
2023/07/06 06:43:44;;;;;;;23.38;8.55;;;;;;;14.42;100.00;101542.19;4990078;28;20042;-85
2023/07/06 06:46:11;;;;;;;19.70;8.67;;;;;;;14.57;100.00;101541.84;4973360;28;20065;-85
2023/07/06 06:48:39;;;;;;;31.13;8.70;;;;;;;14.77;100.00;101547.13;4972895;28;20038;-84
2023/07/06 06:51:07;;;;;;;25.13;8.70;;;;;;;14.78;100.00;101553.44;4973432;28;20117;-85
2023/07/06 06:53:33;;;;;;;23.35;9.13;;;;;;;14.74;100.00;101551.16;4973504;28;20394;-85
2023/07/06 06:55:58;;;;;;;25.60;8.77;;;;;;;14.85;100.00;101559.66;4973472;28;20035;-85
2023/07/06 06:58:24;;;;;;;20.50;8.73;;;;;;;14.90;100.00;101557.09;4974236;28;20043;-85
2023/07/06 07:01:09;;;;;;;27.23;9.45;;;;;;;14.97;100.00;101566.06;4974853;28;20114;-86
2023/07/06 07:03:35;;;;;;;21.35;9.93;;;;;;;14.91;100.00;101564.22;4974245;28;20071;-86
2023/07/06 07:06:11;;;;;;;26.23;9.33;;;;;;;14.90;100.00;101568.84;4940977;28;20523;-85
2023/07/06 07:08:42;;;;;;;21.15;9.23;;;;;;;15.09;100.00;101566.13;4974959;28;20058;-85
2023/07/06 07:11:08;;;;;;;28.17;9.37;;;;;;;15.23;100.00;101564.88;4975192;28;20031;-86
2023/07/06 07:13:35;;;;;;;29.00;9.43;;;;;;;15.38;100.00;101575.47;4973258;28;20443;-85
2023/07/06 07:16:04;;;;;;;22.90;9.32;;;;;;;15.43;100.00;101578.31;4957426;28;20031;-85
2023/07/06 07:18:30;;;;;;;24.05;9.70;;;;;;;15.59;100.00;101579.59;4942155;28;20106;-85
2023/07/06 07:20:56;;;;;;;26.60;10.50;;;;;;;15.61;100.00;101568.41;4957388;28;20050;-85
2023/07/06 07:23:28;;;;;;;22.88;9.57;;;;;;;15.68;100.00;101573.78;4974616;28;20035;-85
2023/07/06 07:25:53;;;;;;;18.57;9.53;;;;;;;15.83;100.00;101585.19;4957669;28;20039;-85
2023/07/06 07:28:19;;;;;;;19.37;10.30;;;;;;;15.91;100.00;101584.84;4957810;28;20471;-85
2023/07/06 07:31:07;;;;;;;26.73;10.73;;;;;;;15.92;100.00;101586.50;4989673;28;20282;-85
2023/07/06 07:33:33;;;;;;;22.05;10.50;;;;;;;16.02;100.00;101596.06;4989627;28;20031;-86
2023/07/06 07:36:02;;;;;;;26.33;10.60;;;;;;;16.14;100.00;101592.28;4972853;28;20483;-85
2023/07/06 07:38:27;;;;;;;23.75;10.77;;;;;;;16.17;100.00;101596.47;4974477;28;20035;-86
2023/07/06 07:40:57;;;;;;;24.20;11.82;;;;;;;16.32;100.00;101596.00;4974455;28;20487;-86
2023/07/06 07:43:25;;;;;;;19.38;9.95;;;;;;;16.43;100.00;101603.41;4973046;28;20039;-85
2023/07/06 07:46:03;;;;;;;24.83;11.13;;;;;;;16.40;100.00;101586.59;4973295;28;20055;-85
2023/07/06 07:48:33;;;;;;;19.23;10.05;;;;;;;16.43;100.00;101592.47;4973699;28;20468;-86
2023/07/06 07:51:04;;;;;;;21.35;10.82;;;;;;;16.41;100.00;101600.06;4972766;28;20117;-86
2023/07/06 07:53:34;;;;;;;20.33;10.40;;;;;;;16.75;100.00;101588.53;4973684;28;20375;-86
2023/07/06 07:56:07;;;;;;;20.80;11.10;;;;;;;17.13;100.00;101584.50;4973365;28;20035;-86
2023/07/06 07:58:34;;;;;;;20.93;10.83;;;;;;;17.03;100.00;101593.31;4972860;28;20407;-86
2023/07/06 08:01:05;;;;;;;23.00;11.57;;;;;;;16.84;100.00;101598.91;4975642;28;20442;-85
2023/07/06 08:03:31;;;;;;;20.95;10.98;;;;;;;16.72;100.00;101589.03;4977709;28;20053;-87
2023/07/06 08:06:02;;;;;;;22.05;10.02;;;;;;;16.93;100.00;101593.94;4989536;28;20050;-87
2023/07/06 08:08:29;;;;;;;21.30;10.20;;;;;;;17.10;100.00;101594.03;4995972;28;20042;-87
2023/07/06 08:10:54;;;;;;;25.97;10.27;;;;;;;17.28;100.00;101597.69;4996790;28;20064;-86
2023/07/06 08:13:20;;;;;;;23.17;9.45;;;;;;;17.46;100.00;101599.41;4995416;28;20451;-86
2023/07/06 08:15:47;;;;;;;22.30;10.50;;;;;;;17.46;99.45;101596.69;4997041;28;20467;-87
2023/07/06 08:18:13;;;;;;;23.48;9.43;;;;;;;17.61;100.00;101599.75;4995604;28;20034;-88
2023/07/06 08:20:42;;;;;;;22.50;9.10;;;;;;;17.80;99.66;101592.13;4995465;28;20030;-87
2023/07/06 08:23:11;;;;;;;22.02;10.07;;;;;;;17.84;98.59;101596.03;4980513;28;20130;-87
2023/07/06 08:25:46;;;;;;;20.63;8.97;;;;;;;17.79;98.59;101606.94;4995248;28;20050;-88
2023/07/06 08:28:12;;;;;;;24.20;10.32;;;;;;;17.91;97.93;101600.56;4979388;28;20593;-89
2023/07/06 08:30:43;;;;;;;18.27;9.10;;;;;;;18.19;94.42;101607.97;4978915;28;20026;-88
2023/07/06 08:33:09;;;;;;;21.88;9.02;;;;;;;18.18;93.56;101609.84;4963087;28;20129;-87
2023/07/06 08:35:42;;;;;;;19.43;8.87;;;;;;;17.94;92.85;101603.69;4979351;28;20066;-86
2023/07/06 08:38:07;;;;;;;19.33;8.60;;;;;;;17.70;95.64;101608.38;4979102;28;20038;-88
2023/07/06 08:40:35;;;;;;;19.58;8.98;;;;;;;17.71;94.69;101610.06;4995146;28;20486;-87
2023/07/06 08:43:04;;;;;;;12.88;8.05;;;;;;;17.97;96.05;101613.34;4996453;28;20034;-87
2023/07/06 08:45:41;;;;;;;15.77;8.60;;;;;;;17.84;93.69;101614.44;4995141;28;20073;-87
2023/07/06 08:48:19;;;;;;;21.95;8.02;;;;;;;17.81;94.17;101623.97;4995089;28;20030;-88
2023/07/06 08:50:51;;;;;;;14.68;8.43;;;;;;;17.74;93.88;101620.53;4978914;28;20085;-87
2023/07/06 08:53:19;;;;;;;14.15;7.43;;;;;;;17.97;89.79;101613.34;4995931;28;20065;-87
2023/07/06 08:55:46;;;;;;;10.25;6.07;;;;;;;18.17;88.84;101624.69;4978955;28;20045;-87
2023/07/06 08:58:27;;;;;;;13.30;5.87;;;;;;;18.14;88.92;101621.59;4978608;28;20040;-87
2023/07/06 09:01:10;;;;;;;19.15;6.47;;;;;;;18.15;89.11;101626.84;4995200;28;20462;-88
2023/07/06 09:03:46;;;;;;;13.15;6.20;;;;;;;18.29;87.66;101626.50;4994964;28;20422;-88
2023/07/06 09:06:16;;;;;;;14.85;5.53;;;;;;;18.68;87.00;101632.94;4994575;28;20141;-88
2023/07/06 09:08:41;;;;;;;13.40;5.72;;;;;;;18.85;85.80;101623.84;4978343;28;20093;-88
2023/07/06 09:11:10;;;;;;;15.63;5.70;;;;;;;19.08;85.08;101629.16;4994565;28;20038;-87
2023/07/06 09:13:45;;;;;;;9.68;5.47;;;;;;;19.18;84.35;101622.16;4961643;28;20391;-87
2023/07/06 09:16:11;;;;;;;14.38;4.85;;;;;;;19.43;84.39;101625.22;4995820;28;20033;-87
2023/07/06 09:18:36;;;;;;;9.57;4.53;;;;;;;19.47;81.23;101617.28;4995899;28;20034;-87
2023/07/06 09:21:02;;;;;;;14.60;4.20;;;;;;;19.36;79.70;101626.50;4978051;28;20042;-87
2023/07/06 09:23:31;;;;;;;11.32;4.30;;;;;;;19.40;77.86;101623.00;4962110;28;20034;-87
2023/07/06 09:25:59;;;;;;;10.57;4.60;;;;;;;19.59;79.52;101626.25;4995462;28;20032;-87
2023/07/06 09:28:29;;;;;;;12.35;4.20;;;;;;;19.58;76.45;101632.00;4994481;28;20088;-88
2023/07/06 09:31:18;;;;;;;6.65;3.92;;;;;;;19.59;79.29;101620.75;4995098;28;20030;-88
2023/07/06 09:33:50;;;;;;;7.63;3.40;;;;;;;19.86;76.63;101630.16;4978282;28;20058;-88
2023/07/06 09:36:25;;;;;;;11.05;3.60;;;;;;;19.83;75.61;101623.25;4995567;28;20410;-87
2023/07/06 09:38:52;;;;;;;9.63;3.17;;;;;;;19.80;74.35;101632.03;4995720;28;20030;-87
2023/07/06 09:41:24;;;;;;;12.15;2.97;;;;;;;19.72;73.80;101629.69;4977472;28;20546;-87
2023/07/06 09:43:58;;;;;;;8.63;3.10;;;;;;;19.84;73.13;101630.38;4994219;28;20471;-87
2023/07/06 09:46:30;;;;;;;9.13;3.00;;;;;;;20.18;70.68;101632.09;4994913;28;20018;-87
2023/07/06 09:48:55;;;;;;;8.25;2.80;;;;;;;20.33;70.73;101632.28;4995403;28;20109;-87
2023/07/06 09:51:28;;;;;;;8.75;2.78;;;;;;;20.26;69.28;101626.97;4961781;28;20113;-87
2023/07/06 09:54:02;;;;;;;8.03;2.53;;;;;;;20.20;70.04;101636.28;4977540;28;20034;-87
2023/07/06 09:56:30;;;;;;;9.18;3.22;;;;;;;20.20;68.97;101640.97;4994576;28;20064;-87
2023/07/06 09:58:58;;;;;;;8.20;3.38;;;;;;;20.19;71.24;101634.59;4995097;28;20041;-88
2023/07/06 10:01:36;;;;;;;10.60;2.90;;;;;;;20.17;68.86;101639.56;4994655;28;20048;-88
2023/07/06 10:04:23;;;;;;;8.88;1.98;;;;;;;20.18;67.45;101637.63;4993806;28;20030;-88
2023/07/06 10:07:05;;;;;;;5.30;1.87;;;;;;;20.44;64.21;101625.72;4977230;28;20086;-88
2023/07/06 10:09:55;;;;;;;4.72;1.90;;;;;;;20.71;66.97;101630.38;4994675;28;20030;-87
2023/07/06 10:12:38;;;;;;;6.30;2.60;;;;;;;21.05;64.07;101634.72;4994846;28;20038;-87
2023/07/06 10:15:17;;;;;;;7.85;2.53;;;;;;;21.26;63.66;101633.75;4994833;28;20117;-87
2023/07/06 10:17:53;;;;;;;7.85;2.80;;;;;;;20.99;61.91;101633.88;4977657;28;20038;-88
2023/07/06 10:20:27;;;;;;;6.50;2.50;;;;;;;20.74;63.53;101620.75;4977279;28;20034;-88
2023/07/06 10:23:05;;;;;;;5.95;2.42;;;;;;;20.68;63.44;101629.00;4977289;28;20030;-88
2023/07/06 10:25:36;;;;;;;9.55;2.70;;;;;;;20.88;62.04;101621.94;4994691;28;20022;-88
2023/07/06 10:28:12;;;;;;;4.18;2.45;;;;;;;21.05;63.14;101624.53;4993673;28;20038;-89
2023/07/06 10:30:45;;;;;;;6.25;2.30;;;;;;;21.29;60.94;101626.84;4993314;28;20038;-87
2023/07/06 10:33:37;;;;;;;6.10;2.37;;;;;;;21.61;61.86;101626.72;4994523;28;20060;-88
2023/07/06 10:36:08;;;;;;;6.68;2.25;;;;;;;21.97;57.71;101610.25;4994789;28;20030;-88
2023/07/06 10:38:33;;;;;;;6.55;2.13;;;;;;;21.53;56.16;101633.63;4977712;28;20433;-88
2023/07/06 10:41:09;;;;;;;7.57;2.17;;;;;;;21.40;56.83;101631.31;4976928;28;20042;-87
2023/07/06 10:43:34;;;;;;;6.05;1.80;;;;;;;21.28;55.42;101619.69;4976794;28;20105;-88
2023/07/06 10:46:31;;;;;;;4.40;1.93;;;;;;;21.38;58.83;101614.22;4977137;28;20125;-89
2023/07/06 10:49:12;;;;;;;5.43;2.10;;;;;;;21.61;55.49;101629.50;4993777;28;20026;-89
2023/07/06 10:51:50;;;;;;;5.97;2.38;;;;;;;21.67;56.90;101620.16;4962935;28;20031;-89
2023/07/06 10:54:25;;;;;;;4.88;1.42;;;;;;;21.77;52.09;101621.28;4977088;28;20038;-88
2023/07/06 10:57:02;;;;;;;4.20;2.03;;;;;;;21.86;54.14;101633.44;4994264;28;20467;-88
2023/07/06 10:59:40;;;;;;;4.30;2.00;;;;;;;21.98;55.60;101619.38;4992631;28;20374;-88
2023/07/06 11:02:20;;;;;;;4.45;1.65;;;;;;;22.35;55.34;101626.63;4994145;28;20026;-88
2023/07/06 11:05:07;;;;;;;5.03;1.92;;;;;;;22.22;53.96;101636.28;4976654;28;20521;-89
2023/07/06 11:07:45;;;;;;;5.63;2.33;;;;;;;21.95;54.94;101626.25;4992439;28;20368;-89
2023/07/06 11:10:13;;;;;;;5.73;1.93;;;;;;;21.77;52.13;101655.22;4976357;28;20072;-89
2023/07/06 11:13:05;;;;;;;4.25;2.08;;;;;;;21.52;54.67;101643.00;4994111;28;20023;-88
2023/07/06 11:15:39;;;;;;;9.20;1.88;;;;;;;21.77;53.52;101635.91;4993651;28;20061;-88
2023/07/06 11:18:20;;;;;;;4.32;1.98;;;;;;;22.08;53.23;101638.72;4976772;28;20467;-88
2023/07/06 11:20:57;;;;;;;5.15;1.80;;;;;;;22.58;53.72;101639.06;4976271;28;20027;-88
2023/07/06 11:23:35;;;;;;;6.90;1.97;;;;;;;22.48;52.89;101637.13;4977326;28;20388;-90
2023/07/06 11:26:07;;;;;;;9.15;2.22;;;;;;;22.36;51.91;101631.88;4994094;28;20034;-89